Time;durP1;ratioP1;P1;durP2;ratioP2;P2;SDS_P1;SDS_P2;PMS_P1;PMS_P2;Temp;Humidity;BMP_temperature;BMP_pressure;BME280_temperature;BME280_humidity;BME280_pressure;Samples;Min_cycle;Max_cycle;Signal;HPM_P1;HPM_P2
2022/01/21 14:17:06;;;;;;;0.80;0.70;;;;;;;16.40;44.04;100324.48;1960712;72;28039;-72
2022/01/21 14:20:00;;;;;;;3.60;1.27;;;;;;;16.81;43.46;100326.55;1925805;73;28116;-72
2022/01/21 14:22:47;;;;;;;0.77;0.77;;;;;;;18.21;40.97;100331.12;1924854;73;28218;-74
2022/01/21 14:25:36;;;;;;;0.90;0.90;;;;;;;18.21;40.97;100331.12;1914790;73;28083;-72
2022/01/21 14:28:47;;;;;;;0.60;0.60;;;;;;;18.68;40.13;100333.00;1902251;73;28008;-73
2022/01/21 14:31:39;;;;;;;1.12;0.78;;;;;;;19.08;39.23;100329.76;1901733;75;28006;-75
2022/01/21 14:34:29;;;;;;;0.72;0.70;;;;;;;19.42;38.47;100326.93;1924497;73;28174;-73
2022/01/21 14:37:21;;;;;;;1.30;0.70;;;;;;;19.63;37.87;100330.99;1902404;75;28030;-74
2022/01/21 14:40:12;;;;;;;1.40;0.60;;;;;;;19.80;37.42;100334.64;1902380;75;28080;-74
2022/01/21 14:43:06;;;;;;;0.80;0.75;;;;;;;19.96;37.04;100333.50;1902236;75;28093;-74
2022/01/21 14:46:04;;;;;;;0.90;0.70;;;;;;;20.09;36.72;100342.33;1902016;75;28087;-76
2022/01/21 14:49:01;;;;;;;0.57;0.57;;;;;;;20.17;36.44;100343.02;1902379;75;28158;-75
2022/01/21 14:52:03;;;;;;;0.70;0.50;;;;;;;20.26;36.21;100335.55;1902481;75;28046;-74
2022/01/21 14:54:40;;;;;;;0.80;0.80;;;;;;;20.34;35.97;100335.41;1902273;75;28045;-74
2022/01/21 14:57:32;;;;;;;0.70;0.70;;;;;;;20.37;35.88;100337.75;1902472;75;28034;-74
2022/01/21 15:00:41;;;;;;;0.75;0.75;;;;;;;20.40;35.71;100335.96;1932968;73;28385;-73
2022/01/21 15:03:32;;;;;;;0.75;0.75;;;;;;;20.44;35.61;100336.72;1906758;73;28559;-74
2022/01/21 15:06:22;;;;;;;0.60;0.60;;;;;;;20.45;35.52;100336.21;1903203;73;28122;-75
2022/01/21 15:09:10;;;;;;;0.65;0.62;;;;;;;20.49;35.38;100335.61;1917972;73;28292;-75
2022/01/21 15:14:23;;;;;;;0.60;0.60;;;;;;;20.49;35.38;100336.16;1913594;73;28004;-76
2022/01/21 15:15:00;;;;;;;1.00;0.80;;;;;;;20.54;35.25;100337.22;1904331;73;28119;-74
2022/01/21 15:17:54;;;;;;;1.10;0.50;;;;;;;20.53;35.22;100337.42;1911453;74;28117;-74
2022/01/21 15:20:45;;;;;;;0.70;0.70;;;;;;;20.55;35.15;100338.91;1917518;74;27980;-74
2022/01/21 15:23:33;;;;;;;0.70;0.70;;;;;;;20.57;35.15;100335.46;1896920;75;28086;-74
2022/01/21 15:26:24;;;;;;;0.60;0.60;;;;;;;20.56;35.04;100332.39;1919754;74;28122;-73
2022/01/21 15:29:13;;;;;;;0.60;0.60;;;;;;;20.57;35.02;100344.16;1904165;74;28044;-73
2022/01/21 15:32:02;;;;;;;0.70;0.70;;;;;;;20.60;34.97;100340.53;1916319;74;28110;-73
2022/01/21 15:34:52;;;;;;;0.70;0.60;;;;;;;20.56;34.99;100344.67;1905219;74;27986;-74
2022/01/21 15:37:41;;;;;;;0.60;0.60;;;;;;;20.56;35.02;100350.14;1920277;74;28435;-74
2022/01/21 15:40:33;;;;;;;0.60;0.60;;;;;;;20.56;35.01;100352.87;1919027;74;28094;-73
2022/01/21 15:43:19;;;;;;;0.80;0.60;;;;;;;20.58;34.97;100348.59;1896476;75;31997;-74
2022/01/21 15:46:08;;;;;;;0.70;0.70;;;;;;;20.61;34.89;100354.99;1904533;74;28115;-74
2022/01/21 15:48:58;;;;;;;0.60;0.60;;;;;;;20.60;34.86;100350.59;1921529;74;28040;-76
2022/01/21 15:51:49;;;;;;;0.70;0.70;;;;;;;20.62;34.85;100348.50;1918992;74;28058;-75
2022/01/21 15:54:39;;;;;;;0.80;0.50;;;;;;;20.59;34.85;100350.27;1914901;74;28033;-74
2022/01/21 15:57:27;;;;;;;0.60;0.60;;;;;;;20.59;34.84;100357.94;1929889;74;27994;-73
2022/01/21 16:00:16;;;;;;;0.50;0.50;;;;;;;20.59;34.83;100357.09;1904939;74;27978;-75
2022/01/21 16:03:06;;;;;;;0.50;0.50;;;;;;;20.56;34.86;100359.69;1903127;74;28092;-74
2022/01/21 16:05:54;;;;;;;0.70;0.70;;;;;;;20.55;34.86;100356.66;1912541;74;28100;-74
2022/01/21 16:08:45;;;;;;;0.60;0.60;;;;;;;20.56;34.86;100358.33;1896245;75;28080;-73
2022/01/21 16:11:34;;;;;;;0.68;0.68;;;;;;;20.55;34.86;100351.72;1896201;75;28060;-74
2022/01/21 16:14:22;;;;;;;0.60;0.60;;;;;;;20.48;34.95;100351.68;1895147;75;28081;-75
2022/01/21 16:17:11;;;;;;;1.17;0.60;;;;;;;20.52;34.90;100352.11;1906531;74;27985;-74
2022/01/21 16:20:00;;;;;;;0.50;0.50;;;;;;;20.51;34.91;100345.80;1917665;74;28128;-73
2022/01/21 16:22:49;;;;;;;0.62;0.62;;;;;;;20.49;34.94;100353.34;1923803;73;28070;-74
2022/01/21 16:25:39;;;;;;;0.62;0.62;;;;;;;20.45;34.99;100354.80;1929265;73;28143;-74
2022/01/21 16:28:28;;;;;;;0.80;0.50;;;;;;;20.47;34.96;100363.63;1934252;73;27985;-73
2022/01/21 16:31:17;;;;;;;0.60;0.60;;;;;;;20.51;34.93;100356.72;1918025;73;27986;-73
2022/01/21 16:34:06;;;;;;;1.00;0.90;;;;;;;20.52;34.90;100353.47;1917835;74;28145;-74
2022/01/21 16:36:55;;;;;;;0.70;0.70;;;;;;;20.48;34.89;100355.77;1917605;74;28146;-74
2022/01/21 16:39:43;;;;;;;0.50;0.50;;;;;;;20.45;34.98;100360.25;1917611;74;28051;-74
2022/01/21 16:42:33;;;;;;;1.45;0.80;;;;;;;20.45;34.93;100362.13;1940623;73;28201;-73
2022/01/21 16:45:24;;;;;;;0.47;0.47;;;;;;;20.46;34.89;100367.41;1917583;74;27989;-77
2022/01/21 16:48:12;;;;;;;0.72;0.68;;;;;;;20.44;34.93;100372.75;1917632;74;28080;-75
2022/01/21 16:51:00;;;;;;;0.60;0.60;;;;;;;20.48;34.90;100368.56;1917453;74;28058;-74
2022/01/21 16:53:49;;;;;;;0.53;0.53;;;;;;;20.48;34.93;100366.69;1940671;73;28131;-74
2022/01/21 16:56:43;;;;;;;0.70;0.70;;;;;;;20.47;34.87;100370.96;1917445;74;28033;-74
2022/01/21 16:59:27;;;;;;;1.30;0.70;;;;;;;20.48;34.82;100360.38;1917574;74;28049;-74
2022/01/21 17:02:15;;;;;;;0.50;0.50;;;;;;;20.47;34.84;100364.98;1917455;74;28034;-73
2022/01/21 17:05:06;;;;;;;0.50;0.50;;;;;;;20.47;34.89;100369.08;1940674;73;28055;-75
2022/01/21 17:07:55;;;;;;;0.40;0.40;;;;;;;20.46;34.91;100361.95;1917515;74;28044;-76
2022/01/21 17:10:43;;;;;;;0.60;0.60;;;;;;;20.43;34.88;100370.53;1933409;73;28085;-74
2022/01/21 17:13:32;;;;;;;0.60;0.60;;;;;;;20.45;34.89;100368.95;1918102;73;28169;-73
2022/01/21 17:16:20;;;;;;;1.30;0.50;;;;;;;20.44;34.91;100367.29;1917650;74;28171;-73
2022/01/21 17:19:11;;;;;;;0.70;0.70;;;;;;;20.39;34.94;100377.44;1917400;74;28023;-74
2022/01/21 17:21:59;;;;;;;0.53;0.53;;;;;;;20.42;34.91;100378.38;1906626;74;28048;-74
2022/01/21 17:24:48;;;;;;;1.12;0.60;;;;;;;20.40;34.93;100379.11;1904649;74;28060;-72
2022/01/21 17:27:37;;;;;;;0.53;0.53;;;;;;;20.41;34.90;100382.17;1897453;74;28095;-72
2022/01/21 17:30:26;;;;;;;0.53;0.53;;;;;;;20.42;34.92;100396.67;1905584;74;28044;-72
2022/01/21 17:33:15;;;;;;;1.00;0.70;;;;;;;20.42;34.62;100389.84;1896815;74;28119;-72
2022/01/21 17:36:04;;;;;;;0.80;0.80;;;;;;;20.48;34.23;100382.22;1897078;74;28650;-72
2022/01/21 17:38:52;;;;;;;0.80;0.80;;;;;;;20.50;33.99;100378.24;1897912;74;28134;-71
2022/01/21 17:41:41;;;;;;;0.98;0.98;;;;;;;20.49;33.79;100379.27;1914165;74;28152;-71
2022/01/21 17:44:31;;;;;;;0.70;0.70;;;;;;;20.49;33.70;100383.91;1900105;74;28041;-71
2022/01/21 17:47:22;;;;;;;0.98;0.82;;;;;;;20.45;33.65;100386.18;1903214;74;28162;-72
2022/01/21 17:50:11;;;;;;;1.10;0.70;;;;;;;20.46;33.57;100387.88;1899886;74;28170;-73
2022/01/21 17:53:01;;;;;;;0.70;0.70;;;;;;;20.45;33.57;100385.33;1882027;75;28056;-73
2022/01/21 17:55:50;;;;;;;1.30;0.70;;;;;;;20.46;33.56;100391.97;1910578;74;30046;-72
2022/01/21 17:58:38;;;;;;;0.80;0.80;;;;;;;20.45;33.54;100390.27;1906447;74;28205;-71
2022/01/21 18:01:27;;;;;;;1.30;0.90;;;;;;;20.48;33.55;100395.34;1905891;74;28179;-73
2022/01/21 18:04:15;;;;;;;0.80;0.80;;;;;;;20.46;33.57;100392.49;1903365;74;28007;-73
2022/01/21 18:07:05;;;;;;;0.90;0.78;;;;;;;20.47;33.59;100403.20;1911484;74;28104;-72
2022/01/21 18:09:54;;;;;;;1.90;0.70;;;;;;;20.49;33.58;100407.11;1896035;75;28120;-73
2022/01/21 18:12:42;;;;;;;0.82;0.82;;;;;;;20.46;33.61;100404.77;1896151;75;28109;-73
2022/01/21 18:15:32;;;;;;;0.90;0.80;;;;;;;20.44;33.67;100413.68;1910312;74;28195;-72
2022/01/21 18:18:23;;;;;;;1.05;0.88;;;;;;;20.44;33.71;100413.68;1913431;74;28038;-72
2022/01/21 18:21:11;;;;;;;0.95;0.70;;;;;;;20.43;33.71;100419.66;1909393;73;28097;-72
2022/01/21 18:24:00;;;;;;;0.62;0.62;;;;;;;20.45;33.75;100423.02;1915237;73;28065;-71
2022/01/21 18:26:49;;;;;;;0.85;0.80;;;;;;;20.43;33.76;100426.48;1904951;73;28088;-72
2022/01/21 18:29:37;;;;;;;1.00;0.68;;;;;;;20.42;33.78;100426.14;1924037;73;27990;-71
2022/01/21 18:32:25;;;;;;;0.68;0.68;;;;;;;20.45;33.77;100429.00;1919750;73;28115;-72
2022/01/21 18:35:14;;;;;;;1.17;0.80;;;;;;;20.47;33.77;100430.48;1913978;73;27982;-72
2022/01/21 18:38:05;;;;;;;1.15;0.70;;;;;;;20.45;33.84;100429.00;1922498;73;28094;-72
2022/01/21 18:40:56;;;;;;;0.80;0.80;;;;;;;20.50;33.78;100429.25;1901015;75;28214;-73
2022/01/21 18:43:45;;;;;;;1.22;0.90;;;;;;;20.45;33.89;100429.00;1901326;75;28120;-72
2022/01/21 18:46:37;;;;;;;0.80;0.70;;;;;;;20.44;33.92;100433.60;1900451;75;28162;-73
2022/01/21 18:49:29;;;;;;;1.45;0.70;;;;;;;20.45;33.90;100437.18;1900839;73;28154;-73
2022/01/21 18:52:16;;;;;;;1.27;0.80;;;;;;;20.45;33.93;100437.18;1919678;73;28156;-73
2022/01/21 18:55:06;;;;;;;0.80;0.80;;;;;;;20.45;33.93;100435.30;1921278;73;28056;-72
2022/01/21 18:57:58;;;;;;;0.88;0.78;;;;;;;20.45;33.96;100429.84;1901158;75;28141;-73
2022/01/21 19:00:48;;;;;;;0.70;0.70;;;;;;;20.42;33.98;100428.87;1902337;73;28084;-72
2022/01/21 19:03:37;;;;;;;0.80;0.80;;;;;;;20.42;34.00;100432.96;1905860;73;28124;-73
2022/01/21 19:06:30;;;;;;;0.80;0.80;;;;;;;20.45;34.02;100448.09;1903969;73;28117;-73
2022/01/21 19:09:19;;;;;;;0.65;0.62;;;;;;;20.43;34.04;100434.66;1927217;73;28180;-73
2022/01/21 19:12:08;;;;;;;0.95;0.70;;;;;;;20.43;34.13;100444.22;1903476;73;27992;-72
2022/01/21 19:14:56;;;;;;;0.70;0.70;;;;;;;20.37;34.17;100464.63;1915589;73;28044;-72
2022/01/21 19:17:45;;;;;;;0.80;0.80;;;;;;;20.36;34.17;100439.22;1902151;73;28658;-72
2022/01/21 19:20:35;;;;;;;2.27;0.80;;;;;;;20.39;34.01;100442.93;1907201;73;28190;-72
2022/01/21 19:23:27;;;;;;;1.40;0.70;;;;;;;20.37;33.93;100451.84;1897431;74;28131;-74
2022/01/21 19:26:29;;;;;;;0.80;0.80;;;;;;;20.37;33.92;100453.20;1901545;73;28065;-72
2022/01/21 19:29:06;;;;;;;1.90;0.88;;;;;;;20.42;33.93;100449.88;1889195;74;28722;-71
2022/01/21 19:31:54;;;;;;;1.32;0.60;;;;;;;20.40;33.83;100447.84;1901385;73;28033;-72
2022/01/21 19:34:44;;;;;;;0.80;0.80;;;;;;;20.39;33.80;100451.12;1901534;73;28157;-72
2022/01/21 19:37:33;;;;;;;0.90;0.80;;;;;;;20.41;33.77;100453.64;1901687;73;28123;-72
2022/01/21 19:40:24;;;;;;;0.87;0.80;;;;;;;20.38;33.72;100452.14;1890195;74;28211;-74
2022/01/21 19:43:13;;;;;;;2.95;0.90;;;;;;;20.36;33.78;100461.05;1892448;74;28231;-73
2022/01/21 19:46:05;;;;;;;1.40;0.95;;;;;;;20.40;33.75;100455.52;1904076;73;31059;-75
2022/01/21 19:48:52;;;;;;;1.10;1.00;;;;;;;20.37;33.71;100459.17;1903693;73;28192;-72
2022/01/21 19:51:40;;;;;;;2.20;1.07;;;;;;;20.31;33.75;100459.42;1893961;74;28182;-71
2022/01/21 19:54:29;;;;;;;0.98;0.85;;;;;;;20.27;33.82;100463.59;1889173;74;28162;-69
2022/01/21 19:57:25;;;;;;;1.37;0.90;;;;;;;20.26;33.87;100470.59;1913974;73;27973;-74
2022/01/21 20:09:31;;;;;;;1.52;1.10;;;;;;;20.21;34.02;100457.51;1911262;74;28111;-69
2022/01/21 20:15:32;;;;;;;1.55;1.00;;;;;;;20.19;34.08;100463.69;1884631;74;28178;-69
2022/01/21 20:18:16;;;;;;;1.60;1.07;;;;;;;20.17;34.12;100464.41;1889119;75;28114;-70
2022/01/21 20:21:01;;;;;;;1.20;1.10;;;;;;;20.18;34.14;100465.25;1912760;73;28050;-71
2022/01/21 20:23:53;;;;;;;1.05;1.02;;;;;;;20.19;34.13;100470.50;1904477;73;28086;-71
2022/01/21 20:26:44;;;;;;;1.73;1.10;;;;;;;20.16;34.20;100469.55;1902669;73;28104;-70
2022/01/21 20:29:32;;;;;;;1.00;1.00;;;;;;;20.17;34.23;100475.31;1915726;73;28127;-71
2022/01/21 20:32:24;;;;;;;1.00;1.00;;;;;;;20.16;34.25;100484.55;1903185;73;28707;-71
2022/01/21 20:35:11;;;;;;;3.20;1.17;;;;;;;20.19;34.22;100481.41;1926056;73;28095;-71
2022/01/21 20:38:02;;;;;;;1.40;1.30;;;;;;;20.21;34.23;100490.24;1908612;73;28164;-72
2022/01/21 20:41:20;;;;;;;1.47;1.10;;;;;;;20.23;34.25;100492.31;1906552;73;29509;-71
2022/01/21 20:43:41;;;;;;;1.40;1.20;;;;;;;20.19;34.27;100494.20;1901391;75;28105;-69
2022/01/21 20:46:29;;;;;;;0.98;0.95;;;;;;;20.22;34.27;100500.16;1901407;73;28092;-71
2022/01/21 20:49:19;;;;;;;1.40;1.10;;;;;;;20.19;34.34;100501.87;1901390;73;28072;-71
2022/01/21 20:52:10;;;;;;;1.12;1.10;;;;;;;20.19;34.37;100509.20;1923562;73;28068;-71
2022/01/21 20:55:01;;;;;;;1.75;1.00;;;;;;;20.20;34.33;100510.91;1915615;73;28106;-70
2022/01/21 20:57:50;;;;;;;1.07;1.07;;;;;;;20.20;34.37;100510.91;1901089;75;28122;-71
2022/01/21 21:00:42;;;;;;;1.00;1.00;;;;;;;20.21;34.38;100509.34;1901268;75;28109;-74
2022/01/21 21:03:28;;;;;;;1.07;1.03;;;;;;;20.22;34.39;100514.31;1901507;75;28125;-75
2022/01/21 21:06:16;;;;;;;1.60;1.20;;;;;;;20.20;34.45;100518.58;1901290;75;28078;-74
2022/01/21 21:09:10;;;;;;;1.23;1.13;;;;;;;20.23;34.47;100516.02;1901493;75;28524;-77
2022/01/21 21:12:02;;;;;;;1.00;1.00;;;;;;;20.23;34.46;100515.50;1902464;73;28135;-76
2022/01/21 21:14:55;;;;;;;3.40;1.07;;;;;;;20.25;34.41;100511.20;1907082;73;28124;-76
2022/01/21 21:17:51;;;;;;;1.20;1.10;;;;;;;20.23;34.51;100514.66;1910848;73;28113;-75
2022/01/21 21:27:01;;;;;;;1.10;1.00;;;;;;;20.19;34.64;100507.33;1889073;74;28182;-75
2022/01/21 21:29:55;;;;;;;1.17;1.02;;;;;;;20.19;34.64;100512.78;1903963;73;28100;-75
2022/01/21 22:59:48;;;;;;;1.25;1.10;;;;;;;20.21;35.06;100578.09;1801233;77;28265;-73
2022/01/21 23:01:40;;;;;;;1.00;0.90;;;;;;;20.29;35.10;100585.66;1867568;76;28320;-74
2022/01/21 23:04:28;;;;;;;1.50;1.20;;;;;;;20.33;35.06;100595.14;1830877;77;28270;-78
2022/01/21 23:07:19;;;;;;;2.10;1.10;;;;;;;20.30;35.12;100603.73;1837016;77;28392;-76
2022/01/21 23:10:09;;;;;;;3.40;0.98;;;;;;;20.33;35.12;100599.73;1846852;76;28382;-70
2022/01/21 23:12:57;;;;;;;1.10;1.00;;;;;;;20.31;35.13;100610.86;1895686;74;28276;-70
2022/01/21 23:15:46;;;;;;;1.47;1.00;;;;;;;20.31;35.14;100605.91;1905108;74;28179;-72
2022/01/21 23:18:34;;;;;;;1.00;1.00;;;;;;;20.30;35.21;100611.91;1888307;74;28278;-72
2022/01/21 23:21:22;;;;;;;2.90;0.90;;;;;;;20.28;35.26;100613.14;1892069;74;28161;-71
2022/01/21 23:24:11;;;;;;;1.90;1.10;;;;;;;20.29;35.33;100618.91;1907091;74;28158;-73
2022/01/21 23:27:00;;;;;;;3.83;1.20;;;;;;;20.30;35.35;100619.25;1893171;74;28289;-73
2022/01/21 23:29:49;;;;;;;1.05;1.05;;;;;;;20.31;35.30;100614.95;1895249;74;28128;-73
2022/01/21 23:32:41;;;;;;;1.03;1.03;;;;;;;20.33;35.27;100615.60;1891366;74;28721;-72
2022/01/21 23:35:30;;;;;;;1.40;1.00;;;;;;;20.36;35.28;100617.95;1899996;74;28769;-71
2022/01/21 23:38:29;;;;;;;1.30;1.02;;;;;;;20.35;35.31;100620.89;1892164;74;28127;-72
2022/01/21 23:41:12;;;;;;;1.17;1.07;;;;;;;20.32;35.33;100618.53;1842323;76;28341;-72
2022/01/21 23:44:02;;;;;;;0.90;0.90;;;;;;;20.34;35.31;100616.45;1810104;78;28324;-73
2022/01/21 23:46:51;;;;;;;2.10;1.10;;;;;;;20.32;35.28;100616.66;1879666;75;28067;-75
2022/01/21 23:49:42;;;;;;;1.37;1.27;;;;;;;20.40;35.24;100622.48;1879162;75;28146;-79
2022/01/21 23:52:31;;;;;;;1.30;1.10;;;;;;;20.40;35.18;100616.52;1896097;75;28186;-75
2022/01/21 23:55:23;;;;;;;2.72;1.10;;;;;;;20.39;35.25;100622.19;1889584;75;35098;-75
2022/01/21 23:58:12;;;;;;;1.47;1.00;;;;;;;20.40;35.20;100629.31;1889927;75;28147;-74
